createdAt,value
2023-02-05T00:00:19.411Z,99.72
2023-02-05T00:02:46.307Z,99.68
2023-02-05T00:05:12.900Z,99.69
2023-02-05T00:07:39.417Z,99.16
2023-02-05T00:10:06.352Z,98.50
2023-02-05T00:12:32.788Z,98.67
2023-02-05T00:14:59.292Z,98.30
2023-02-05T00:17:25.799Z,98.11
2023-02-05T00:19:52.242Z,97.83
2023-02-05T00:22:18.743Z,97.42
2023-02-05T00:24:45.227Z,97.34
2023-02-05T00:27:11.839Z,96.78
2023-02-05T00:29:38.371Z,96.45
2023-02-05T00:32:04.869Z,95.62
2023-02-05T00:34:31.401Z,95.46
2023-02-05T00:36:57.904Z,95.53
2023-02-05T00:39:24.385Z,95.83
2023-02-05T00:41:50.833Z,95.18
2023-02-05T00:44:17.575Z,94.90
2023-02-05T00:46:44.127Z,94.46
2023-02-05T00:49:10.619Z,94.79
2023-02-05T00:51:37.153Z,95.12
2023-02-05T00:54:03.705Z,94.90
2023-02-05T00:56:30.420Z,94.42
2023-02-05T00:58:57.680Z,93.23
2023-02-05T01:01:24.261Z,93.88
2023-02-05T01:03:51.207Z,94.07
2023-02-05T01:06:17.942Z,93.73
2023-02-05T01:08:44.431Z,94.24
2023-02-05T01:11:13.761Z,94.36
2023-02-05T01:13:40.204Z,94.01
2023-02-05T01:16:08.403Z,93.43
2023-02-05T01:18:34.968Z,92.92
2023-02-05T01:21:01.491Z,93.49
2023-02-05T01:23:28.087Z,93.28
2023-02-05T01:25:54.586Z,92.71
2023-02-05T01:28:21.144Z,92.47
2023-02-05T01:30:49.304Z,92.01
2023-02-05T01:33:16.219Z,92.14
2023-02-05T01:35:44.739Z,91.87
2023-02-05T01:38:12.721Z,91.92
2023-02-05T01:40:39.804Z,91.51
2023-02-05T01:43:12.011Z,91.14
2023-02-05T01:45:50.958Z,89.95
2023-02-05T01:48:28.292Z,90.60
2023-02-05T01:50:57.608Z,90.76
2023-02-05T01:53:30.299Z,91.20
2023-02-05T01:56:03.605Z,91.41
2023-02-05T01:58:32.777Z,90.70
2023-02-05T02:00:59.521Z,90.94
2023-02-05T02:03:27.956Z,90.39
2023-02-05T02:05:55.519Z,90.33
2023-02-05T02:08:22.416Z,89.83
2023-02-05T02:10:50.249Z,89.46
2023-02-05T02:13:18.670Z,89.37
2023-02-05T02:15:45.375Z,89.73
2023-02-05T02:18:28.024Z,90.09
2023-02-05T02:21:13.169Z,90.42
2023-02-05T02:23:59.619Z,90.77
2023-02-05T02:26:40.666Z,90.91
2023-02-05T02:29:08.642Z,90.17
2023-02-05T02:31:42.404Z,90.19
2023-02-05T02:34:33.441Z,90.46
2023-02-05T02:37:08.773Z,89.80
2023-02-05T02:39:42.422Z,89.71
2023-02-05T02:42:18.514Z,89.90
2023-02-05T02:44:51.172Z,89.50
2023-02-05T02:47:20.607Z,89.72
2023-02-05T02:49:54.058Z,89.62
2023-02-05T02:52:21.638Z,89.38
2023-02-05T02:54:50.560Z,89.15
2023-02-05T02:57:18.851Z,88.44
2023-02-05T02:59:47.680Z,88.93
2023-02-05T03:02:18.279Z,89.54
2023-02-05T03:04:49.284Z,89.11
2023-02-05T03:07:22.567Z,89.96
2023-02-05T03:10:04.626Z,90.28
2023-02-05T03:12:31.583Z,90.47
2023-02-05T03:14:58.138Z,89.56
2023-02-05T03:17:25.136Z,89.74
2023-02-05T03:19:58.058Z,90.16
2023-02-05T03:22:24.647Z,90.60
2023-02-05T03:24:51.181Z,90.47
2023-02-05T03:27:17.716Z,90.23
2023-02-05T03:29:45.052Z,89.81
2023-02-05T03:32:35.347Z,89.85
2023-02-05T03:35:13.444Z,90.00
2023-02-05T03:37:58.739Z,90.12
2023-02-05T03:40:33.211Z,90.67
2023-02-05T03:43:21.204Z,90.64
2023-02-05T03:46:38.512Z,90.99
2023-02-05T03:49:41.115Z,91.06
2023-02-05T03:52:16.021Z,90.75
2023-02-05T03:54:57.608Z,91.06
2023-02-05T03:57:32.814Z,91.42
2023-02-05T03:59:59.336Z,91.63
2023-02-05T04:02:25.952Z,91.59
2023-02-05T04:04:52.465Z,91.06
2023-02-05T04:07:19.052Z,90.50
2023-02-05T04:09:45.512Z,90.11
2023-02-05T04:12:11.990Z,90.56
2023-02-05T04:14:38.582Z,90.47
2023-02-05T04:17:05.079Z,90.78
2023-02-05T04:19:31.572Z,91.13
2023-02-05T04:21:58.069Z,90.66
2023-02-05T04:24:25.295Z,90.61
2023-02-05T04:26:52.354Z,91.15
2023-02-05T04:29:18.897Z,91.26
2023-02-05T04:31:45.603Z,90.87
2023-02-05T04:34:14.788Z,90.86
2023-02-05T04:36:41.339Z,90.62
2023-02-05T04:39:07.874Z,90.27
2023-02-05T04:41:34.486Z,90.60
2023-02-05T04:44:01.000Z,90.73
2023-02-05T04:46:27.475Z,90.67
2023-02-05T04:48:53.950Z,90.31
2023-02-05T04:51:20.422Z,90.02
2023-02-05T04:53:47.183Z,90.03
2023-02-05T04:56:16.372Z,89.45
2023-02-05T04:58:43.734Z,89.42
2023-02-05T05:01:15.760Z,89.53
2023-02-05T05:03:42.920Z,89.35
2023-02-05T05:06:09.637Z,89.67
2023-02-05T05:08:36.310Z,89.90
2023-02-05T05:11:07.564Z,89.84
2023-02-05T05:13:35.429Z,89.69
2023-02-05T05:16:02.159Z,89.76
2023-02-05T05:18:28.840Z,90.09
2023-02-05T05:20:55.320Z,90.41
2023-02-05T05:23:21.872Z,89.76
2023-02-05T05:25:48.844Z,89.89
2023-02-05T05:28:16.392Z,89.64
2023-02-05T05:30:45.375Z,90.17
2023-02-05T05:33:12.807Z,89.98
2023-02-05T05:35:39.397Z,89.80
2023-02-05T05:38:06.094Z,89.99
2023-02-05T05:40:51.187Z,90.31
2023-02-05T05:43:38.770Z,89.88
2023-02-05T05:46:06.558Z,90.79
2023-02-05T05:48:33.225Z,90.78
2023-02-05T05:50:59.677Z,90.57
2023-02-05T05:53:26.166Z,91.16
2023-02-05T05:55:52.619Z,90.95
2023-02-05T05:58:19.180Z,90.52
2023-02-05T06:00:45.742Z,90.86
2023-02-05T06:03:13.193Z,91.13
2023-02-05T06:05:39.680Z,91.69
2023-02-05T06:08:06.405Z,91.13
2023-02-05T06:10:33.247Z,90.93
2023-02-05T06:13:00.156Z,90.32
2023-02-05T06:15:29.792Z,90.17
2023-02-05T06:17:56.355Z,90.21
2023-02-05T06:20:22.891Z,91.01
2023-02-05T06:22:49.371Z,90.77
2023-02-05T06:25:16.084Z,91.11
2023-02-05T06:27:42.688Z,91.09
2023-02-05T06:30:10.457Z,91.42
2023-02-05T06:32:37.137Z,91.61
2023-02-05T06:35:03.754Z,91.45
2023-02-05T06:37:46.125Z,91.65
2023-02-05T06:40:15.573Z,91.29
2023-02-05T06:42:42.239Z,91.77
2023-02-05T06:45:10.065Z,90.62
2023-02-05T06:47:37.226Z,90.40
2023-02-05T06:50:05.076Z,90.90
2023-02-05T06:52:31.633Z,90.31
2023-02-05T06:54:58.210Z,89.56
2023-02-05T06:57:24.828Z,89.14
2023-02-05T06:59:51.278Z,88.98
2023-02-05T07:02:17.822Z,89.17
2023-02-05T07:04:44.269Z,89.35
2023-02-05T07:07:10.699Z,89.27
2023-02-05T07:09:37.456Z,89.36
2023-02-05T07:12:04.118Z,88.65
2023-02-05T07:14:31.516Z,88.51
2023-02-05T07:16:58.069Z,88.65
2023-02-05T07:19:24.560Z,88.61
2023-02-05T07:21:51.179Z,87.46
2023-02-05T07:24:17.685Z,88.06
2023-02-05T07:26:45.281Z,87.81
2023-02-05T07:29:12.052Z,86.68
2023-02-05T07:31:38.907Z,87.13
2023-02-05T07:34:05.486Z,87.11
2023-02-05T07:36:31.964Z,87.43
2023-02-05T07:38:58.553Z,86.07
2023-02-05T07:41:26.800Z,86.41
2023-02-05T07:43:54.469Z,84.12
2023-02-05T07:46:21.936Z,83.92
2023-02-05T07:48:48.501Z,82.72
2023-02-05T07:51:20.010Z,82.73
2023-02-05T07:53:47.019Z,82.13
2023-02-05T07:56:13.834Z,80.89
2023-02-05T07:58:40.490Z,80.17
2023-02-05T08:01:07.298Z,79.63
2023-02-05T08:03:34.657Z,79.81
2023-02-05T08:06:08.157Z,80.13
2023-02-05T08:08:34.877Z,79.59
2023-02-05T08:11:05.970Z,79.24
2023-02-05T08:13:33.765Z,79.49
2023-02-05T08:16:04.917Z,77.97
2023-02-05T08:18:31.597Z,78.95
2023-02-05T08:20:58.071Z,79.47
2023-02-05T08:23:24.626Z,80.48
2023-02-05T08:25:55.109Z,79.72
2023-02-05T08:28:22.356Z,79.10
2023-02-05T08:30:48.943Z,79.88
2023-02-05T08:33:15.612Z,80.46
2023-02-05T08:35:42.094Z,80.12
2023-02-05T08:38:08.610Z,81.02
2023-02-05T08:40:35.829Z,80.32
2023-02-05T08:43:02.722Z,79.94
2023-02-05T08:45:30.323Z,80.29
2023-02-05T08:47:56.978Z,80.26
2023-02-05T08:50:23.808Z,80.35
2023-02-05T08:52:50.426Z,78.96
2023-02-05T08:55:20.818Z,79.81
2023-02-05T08:57:47.396Z,79.02
2023-02-05T09:00:15.156Z,78.37
2023-02-05T09:02:42.983Z,78.92
2023-02-05T09:05:09.972Z,79.02
2023-02-05T09:07:40.834Z,78.52
2023-02-05T09:10:12.194Z,78.78
2023-02-05T09:12:39.026Z,77.24
2023-02-05T09:15:06.578Z,76.90
2023-02-05T09:17:33.121Z,76.06
2023-02-05T09:19:59.760Z,74.88
2023-02-05T09:22:26.237Z,75.15
2023-02-05T09:24:53.096Z,73.40
2023-02-05T09:27:19.563Z,73.87
2023-02-05T09:29:46.141Z,73.40
2023-02-05T09:32:13.473Z,71.70
2023-02-05T09:34:40.039Z,72.39
2023-02-05T09:37:06.569Z,72.92
2023-02-05T09:42:22.034Z,72.52
2023-02-05T09:45:03.896Z,73.57
2023-02-05T09:47:36.614Z,73.51
2023-02-05T09:50:29.185Z,70.88
2023-02-05T09:53:05.950Z,72.62
2023-02-05T09:55:44.882Z,72.00
2023-02-05T09:58:15.235Z,72.03
2023-02-05T10:01:12.917Z,72.13
2023-02-05T10:03:48.691Z,71.83
2023-02-05T10:06:33.745Z,72.81
2023-02-05T10:09:17.910Z,73.28
2023-02-05T10:12:28.844Z,74.15
2023-02-05T10:15:16.025Z,74.39
2023-02-05T10:17:54.961Z,74.15
2023-02-05T10:20:27.142Z,72.74
2023-02-05T10:23:12.909Z,73.21
2023-02-05T10:25:51.084Z,73.59
2023-02-05T10:28:37.011Z,73.27
2023-02-05T10:31:25.142Z,73.38
2023-02-05T10:33:59.948Z,72.84
2023-02-05T10:36:27.019Z,72.65
2023-02-05T10:38:55.931Z,71.49
2023-02-05T10:41:45.234Z,70.67
2023-02-05T10:44:17.856Z,71.16
2023-02-05T10:46:51.675Z,71.06
2023-02-05T10:49:42.710Z,71.56
2023-02-05T10:52:13.830Z,71.60
2023-02-05T10:54:41.640Z,71.32
2023-02-05T10:57:19.186Z,70.84
2023-02-05T10:59:54.451Z,70.28
2023-02-05T11:02:22.178Z,71.08
2023-02-05T11:04:53.262Z,72.24
2023-02-05T11:07:30.502Z,72.88
2023-02-05T11:10:23.508Z,73.29
2023-02-05T11:12:53.525Z,72.92
2023-02-05T11:15:26.176Z,72.81
2023-02-05T11:17:57.445Z,73.85
2023-02-05T11:20:31.453Z,73.58
2023-02-05T11:23:20.303Z,72.90
2023-02-05T11:25:58.906Z,72.68
2023-02-05T11:28:30.186Z,72.23
2023-02-05T11:30:57.532Z,72.67
2023-02-05T11:33:27.621Z,72.97
2023-02-05T11:36:02.072Z,73.05
2023-02-05T11:38:42.338Z,72.45
2023-02-05T11:41:10.228Z,72.91
2023-02-05T11:43:49.826Z,73.42
2023-02-05T11:46:24.510Z,72.40
2023-02-05T11:48:57.977Z,71.59
2023-02-05T11:51:36.391Z,71.99
2023-02-05T11:54:08.986Z,72.60
2023-02-05T11:56:35.485Z,71.28
2023-02-05T11:59:05.317Z,71.10
2023-02-05T12:01:34.095Z,70.52
2023-02-05T12:04:14.998Z,69.03
2023-02-05T12:06:46.325Z,69.21
2023-02-05T12:09:19.451Z,68.18
2023-02-05T12:12:11.863Z,68.48
2023-02-05T12:15:23.848Z,68.99
2023-02-05T12:18:37.203Z,67.32
2023-02-05T12:21:06.474Z,67.91
2023-02-05T12:23:35.959Z,68.21
2023-02-05T12:26:17.787Z,68.47
2023-02-05T12:29:15.225Z,66.79
2023-02-05T12:32:13.888Z,66.57
2023-02-05T12:34:49.085Z,66.80
2023-02-05T12:37:27.740Z,65.52
2023-02-05T12:39:59.329Z,66.56
2023-02-05T12:42:36.715Z,66.92
2023-02-05T12:45:08.336Z,67.59
2023-02-05T12:47:37.551Z,66.31
2023-02-05T12:50:25.284Z,66.53
2023-02-05T12:53:21.597Z,65.93
2023-02-05T12:55:50.865Z,66.95
2023-02-05T12:58:19.044Z,68.05
2023-02-05T13:00:51.082Z,68.38
2023-02-05T13:03:32.773Z,68.38
2023-02-05T13:06:06.612Z,68.01
2023-02-05T13:08:47.096Z,66.53
2023-02-05T13:11:26.926Z,66.91
2023-02-05T13:13:58.180Z,66.63
2023-02-05T13:16:37.821Z,64.80
2023-02-05T13:19:14.677Z,62.35
2023-02-05T13:22:00.433Z,62.35
2023-02-05T13:24:52.864Z,62.53
2023-02-05T13:27:44.254Z,62.90
2023-02-05T13:30:20.813Z,61.67
2023-02-05T13:32:50.344Z,62.36
2023-02-05T13:35:16.831Z,61.81
2023-02-05T13:37:55.530Z,62.90
2023-02-05T13:40:45.768Z,64.14
2023-02-05T13:43:35.156Z,64.81
2023-02-05T13:46:24.889Z,65.21
2023-02-05T13:49:09.258Z,64.51
2023-02-05T13:51:38.912Z,64.24
2023-02-05T13:54:39.127Z,64.64
2023-02-05T13:57:33.429Z,64.60
2023-02-05T14:00:00.480Z,63.95
2023-02-05T14:02:46.713Z,62.90
2023-02-05T14:05:13.753Z,64.43
2023-02-05T14:07:49.002Z,63.92
2023-02-05T14:10:36.407Z,65.29
2023-02-05T14:13:08.759Z,65.85
2023-02-05T14:15:40.713Z,65.64
2023-02-05T14:18:10.219Z,65.67
2023-02-05T14:20:42.034Z,65.00
2023-02-05T14:23:45.956Z,65.45
2023-02-05T14:26:13.154Z,69.29
2023-02-05T14:28:48.508Z,65.93
2023-02-05T14:31:46.453Z,65.23
2023-02-05T14:34:34.357Z,67.24
2023-02-05T14:37:01.221Z,67.13
2023-02-05T14:39:35.406Z,67.36
2023-02-05T14:42:05.513Z,67.48
2023-02-05T14:44:34.363Z,66.68
2023-02-05T14:47:19.657Z,66.64
2023-02-05T14:49:48.073Z,66.12
2023-02-05T14:52:34.320Z,65.30
2023-02-05T14:55:16.788Z,66.02
2023-02-05T14:57:52.141Z,66.77
2023-02-05T15:00:36.261Z,67.00
2023-02-05T15:03:16.986Z,68.12
2023-02-05T15:05:43.470Z,68.08
2023-02-05T15:08:28.188Z,68.46
2023-02-05T15:11:49.217Z,68.38
2023-02-05T15:14:21.602Z,68.15
2023-02-05T15:17:13.978Z,68.33
2023-02-05T15:19:43.449Z,68.37
2023-02-05T15:22:19.964Z,68.77
2023-02-05T15:24:48.502Z,69.80
2023-02-05T15:27:19.162Z,69.83
2023-02-05T15:29:48.074Z,68.53
2023-02-05T15:32:19.206Z,70.04
2023-02-05T15:34:57.856Z,70.47
2023-02-05T15:37:31.555Z,69.81
2023-02-05T15:40:11.766Z,70.41
2023-02-05T15:42:41.535Z,70.20
2023-02-05T15:45:24.724Z,69.73
2023-02-05T15:48:00.251Z,69.74
2023-02-05T15:50:26.960Z,69.90
2023-02-05T15:52:53.556Z,70.62
2023-02-05T15:55:22.039Z,69.75
2023-02-05T15:57:48.740Z,70.17
2023-02-05T16:00:25.255Z,70.09
2023-02-05T16:02:57.704Z,70.09
2023-02-05T16:05:25.345Z,69.89
2023-02-05T16:07:57.138Z,70.33
2023-02-05T16:10:29.282Z,70.77
2023-02-05T16:13:05.395Z,70.19
2023-02-05T16:15:41.073Z,70.61
2023-02-05T16:18:19.836Z,70.51
2023-02-05T16:20:53.348Z,70.79
2023-02-05T16:23:32.590Z,70.78
2023-02-05T16:26:18.201Z,71.18
2023-02-05T16:28:48.761Z,70.21
2023-02-05T16:31:17.335Z,70.19
2023-02-05T16:33:46.380Z,69.61
2023-02-05T16:36:20.008Z,70.12
2023-02-05T16:38:50.940Z,69.42
2023-02-05T16:41:31.291Z,70.05
2023-02-05T16:43:59.396Z,70.14
2023-02-05T16:46:28.765Z,69.71
2023-02-05T16:49:00.566Z,69.98
2023-02-05T16:51:37.385Z,70.10
2023-02-05T16:54:31.697Z,69.44
2023-02-05T16:57:00.940Z,69.59
2023-02-05T16:59:34.749Z,69.43
2023-02-05T17:02:03.157Z,69.22
2023-02-05T17:04:34.324Z,70.21
2023-02-05T17:07:01.996Z,71.28
2023-02-05T17:09:34.983Z,71.58
2023-02-05T17:12:19.389Z,73.23
2023-02-05T17:15:16.112Z,73.59
2023-02-05T17:17:51.460Z,73.99
2023-02-05T17:20:19.847Z,73.60
2023-02-05T17:23:07.286Z,74.59
2023-02-05T17:25:51.878Z,76.40
2023-02-05T17:28:25.486Z,75.63
2023-02-05T17:30:54.185Z,76.51
2023-02-05T17:33:23.231Z,76.63
2023-02-05T17:35:50.068Z,76.59
2023-02-05T17:38:17.366Z,76.97
2023-02-05T17:40:44.310Z,77.02
2023-02-05T17:43:10.917Z,78.76
2023-02-05T17:45:43.240Z,78.93
2023-02-05T17:48:10.291Z,78.76
2023-02-05T17:50:37.902Z,78.90
2023-02-05T17:53:04.538Z,78.84
2023-02-05T17:55:31.244Z,79.76
2023-02-05T17:57:57.981Z,78.94
2023-02-05T18:00:27.602Z,78.96
2023-02-05T18:02:54.617Z,79.87
2023-02-05T18:05:21.864Z,79.34
2023-02-05T18:07:50.051Z,79.74
2023-02-05T18:10:19.528Z,80.10
2023-02-05T18:12:46.037Z,80.28
2023-02-05T18:15:13.524Z,81.82
2023-02-05T18:17:41.195Z,82.51
2023-02-05T18:20:08.861Z,82.97
2023-02-05T18:22:35.347Z,83.47
2023-02-05T18:25:01.895Z,83.84
2023-02-05T18:27:28.694Z,84.26
2023-02-05T18:29:55.292Z,85.17
2023-02-05T18:32:22.610Z,85.68
2023-02-05T18:34:49.378Z,85.74
2023-02-05T18:37:16.619Z,85.75
2023-02-05T18:39:43.706Z,86.43
2023-02-05T18:42:11.684Z,87.72
2023-02-05T18:44:38.752Z,88.33
2023-02-05T18:47:06.012Z,89.12
2023-02-05T18:49:33.668Z,89.82
2023-02-05T18:52:00.733Z,89.46
2023-02-05T18:54:27.360Z,90.33
2023-02-05T18:56:54.809Z,90.27
2023-02-05T18:59:24.097Z,90.41
2023-02-05T19:01:51.209Z,90.91
2023-02-05T19:04:21.038Z,91.87
2023-02-05T19:06:52.437Z,92.37
2023-02-05T19:09:23.664Z,93.47
2023-02-05T19:11:50.890Z,93.41
2023-02-05T19:14:18.972Z,94.23
2023-02-05T19:16:47.082Z,94.44
2023-02-05T19:19:16.373Z,94.10
2023-02-05T19:21:44.877Z,93.88
2023-02-05T19:24:13.818Z,94.09
2023-02-05T19:26:45.082Z,94.28
2023-02-05T19:29:16.695Z,94.36
2023-02-05T19:31:44.011Z,94.43
2023-02-05T19:34:11.957Z,95.37
2023-02-05T19:36:38.812Z,95.82
2023-02-05T19:39:07.424Z,96.26
2023-02-05T19:41:35.230Z,96.75
2023-02-05T19:44:04.170Z,96.66
2023-02-05T19:46:39.719Z,96.80
2023-02-05T19:49:11.590Z,96.93
2023-02-05T19:51:38.342Z,97.53
2023-02-05T19:54:06.632Z,97.76
2023-02-05T19:56:35.631Z,98.17
2023-02-05T19:59:02.122Z,98.54
2023-02-05T20:01:30.968Z,98.74
2023-02-05T20:03:59.770Z,98.68
2023-02-05T20:06:29.593Z,98.86
2023-02-05T20:08:56.577Z,98.79
2023-02-05T20:11:23.376Z,99.09
2023-02-05T20:13:50.396Z,98.92
2023-02-05T20:16:21.161Z,99.48
2023-02-05T20:18:52.368Z,99.59
2023-02-05T20:21:19.175Z,99.87
2023-02-05T20:23:46.951Z,99.50
2023-02-05T20:26:14.600Z,100.00
2023-02-05T20:29:11.993Z,100.00
2023-02-05T20:31:42.933Z,100.00
2023-02-05T20:34:18.618Z,100.00
2023-02-05T20:36:47.037Z,100.00
2023-02-05T20:39:14.241Z,100.00
2023-02-05T20:41:40.916Z,100.00
2023-02-05T20:44:07.580Z,100.00
2023-02-05T20:46:34.656Z,100.00
2023-02-05T20:49:01.193Z,100.00
2023-02-05T20:51:27.920Z,100.00
2023-02-05T20:53:58.671Z,100.00
2023-02-05T20:56:27.247Z,100.00
2023-02-05T20:58:54.600Z,100.00
2023-02-05T21:01:23.428Z,100.00
2023-02-05T21:03:52.441Z,100.00
2023-02-05T21:06:20.495Z,100.00
2023-02-05T21:08:47.879Z,100.00
2023-02-05T21:11:16.065Z,100.00
2023-02-05T21:13:43.580Z,100.00
2023-02-05T21:16:11.754Z,100.00
2023-02-05T21:18:40.292Z,100.00
2023-02-05T21:21:12.878Z,100.00
2023-02-05T21:23:40.167Z,99.73
2023-02-05T21:26:07.366Z,100.00
2023-02-05T21:28:34.343Z,100.00
2023-02-05T21:31:06.178Z,100.00
2023-02-05T21:33:33.341Z,100.00
2023-02-05T21:36:08.636Z,99.89
2023-02-05T21:38:39.681Z,99.84
2023-02-05T21:41:08.200Z,99.92
2023-02-05T21:43:35.090Z,99.64
2023-02-05T21:46:06.701Z,99.99
2023-02-05T21:48:33.494Z,100.00
2023-02-05T21:51:00.273Z,100.00
2023-02-05T21:53:27.810Z,100.00
2023-02-05T21:55:54.517Z,100.00
2023-02-05T21:58:21.719Z,99.94
2023-02-05T22:00:48.212Z,99.91
2023-02-05T22:03:14.698Z,99.50
2023-02-05T22:05:41.173Z,98.95
2023-02-05T22:08:11.603Z,99.52
2023-02-05T22:10:38.348Z,99.55
2023-02-05T22:13:05.123Z,100.00
2023-02-05T22:15:31.665Z,99.81
2023-02-05T22:17:58.185Z,100.00
2023-02-05T22:20:24.648Z,100.00
2023-02-05T22:22:51.104Z,99.95
2023-02-05T22:25:17.882Z,100.00
2023-02-05T22:27:44.609Z,100.00
2023-02-05T22:30:11.772Z,100.00
2023-02-05T22:32:38.252Z,100.00
2023-02-05T22:35:04.926Z,100.00
2023-02-05T22:37:31.454Z,100.00
2023-02-05T22:39:57.956Z,100.00
2023-02-05T22:42:24.848Z,99.67
2023-02-05T22:44:51.297Z,100.00
2023-02-05T22:47:17.947Z,100.00
2023-02-05T22:49:44.469Z,100.00
2023-02-05T22:52:10.930Z,100.00
2023-02-05T22:54:37.602Z,100.00
2023-02-05T22:57:04.250Z,100.00
2023-02-05T22:59:30.686Z,100.00
2023-02-05T23:01:57.504Z,100.00
2023-02-05T23:04:24.068Z,100.00
2023-02-05T23:06:50.505Z,100.00
2023-02-05T23:09:18.525Z,100.00
2023-02-05T23:11:45.438Z,100.00
2023-02-05T23:14:14.442Z,100.00
2023-02-05T23:16:42.525Z,100.00
2023-02-05T23:19:19.667Z,100.00
2023-02-05T23:21:47.005Z,100.00
2023-02-05T23:24:13.648Z,100.00
2023-02-05T23:26:42.900Z,100.00
2023-02-05T23:29:10.976Z,100.00
2023-02-05T23:31:37.645Z,100.00
2023-02-05T23:34:04.587Z,100.00
2023-02-05T23:36:31.169Z,100.00
2023-02-05T23:38:57.676Z,100.00
2023-02-05T23:41:36.566Z,100.00
2023-02-05T23:44:10.521Z,100.00
2023-02-05T23:46:37.556Z,100.00
2023-02-05T23:49:04.972Z,100.00
2023-02-05T23:51:32.103Z,100.00
2023-02-05T23:53:58.969Z,100.00
2023-02-05T23:56:25.809Z,100.00
2023-02-05T23:58:52.348Z,100.00
